sensor_id;sensor_type;location;lat;lon;timestamp;P1;durP1;ratioP1;P2;durP2;ratioP2
48534;SDS011;34323;52.022;5.686;2022-08-19T00:01:35;5.43;;;3.90;;
48534;SDS011;34323;52.022;5.686;2022-08-19T00:04:03;5.03;;;3.92;;
48534;SDS011;34323;52.022;5.686;2022-08-19T00:06:31;4.35;;;3.30;;
48534;SDS011;34323;52.022;5.686;2022-08-19T00:08:57;8.00;;;4.43;;
48534;SDS011;34323;52.022;5.686;2022-08-19T00:11:23;4.38;;;3.63;;
48534;SDS011;34323;52.022;5.686;2022-08-19T00:13:52;6.55;;;3.90;;
48534;SDS011;34323;52.022;5.686;2022-08-19T00:16:19;6.85;;;3.75;;
48534;SDS011;34323;52.022;5.686;2022-08-19T00:18:45;7.53;;;3.75;;
48534;SDS011;34323;52.022;5.686;2022-08-19T00:21:12;5.35;;;3.85;;
48534;SDS011;34323;52.022;5.686;2022-08-19T00:23:38;10.75;;;3.78;;
48534;SDS011;34323;52.022;5.686;2022-08-19T00:26:04;9.40;;;3.67;;
48534;SDS011;34323;52.022;5.686;2022-08-19T00:28:30;4.63;;;3.60;;
48534;SDS011;34323;52.022;5.686;2022-08-19T00:30:56;7.20;;;3.35;;
48534;SDS011;34323;52.022;5.686;2022-08-19T00:33:21;5.05;;;3.50;;
48534;SDS011;34323;52.022;5.686;2022-08-19T00:35:47;7.32;;;3.53;;
48534;SDS011;34323;52.022;5.686;2022-08-19T00:38:13;4.28;;;3.67;;
48534;SDS011;34323;52.022;5.686;2022-08-19T00:40:39;4.60;;;3.83;;
48534;SDS011;34323;52.022;5.686;2022-08-19T00:43:10;8.02;;;3.55;;
48534;SDS011;34323;52.022;5.686;2022-08-19T00:45:38;4.60;;;3.90;;
48534;SDS011;34323;52.022;5.686;2022-08-19T00:48:06;5.30;;;4.65;;
48534;SDS011;34323;52.022;5.686;2022-08-19T00:50:32;4.68;;;4.28;;
48534;SDS011;34323;52.022;5.686;2022-08-19T00:52:59;7.55;;;4.35;;
48534;SDS011;34323;52.022;5.686;2022-08-19T00:55:29;6.15;;;4.45;;
48534;SDS011;34323;52.022;5.686;2022-08-19T00:57:58;5.32;;;4.68;;
48534;SDS011;34323;52.022;5.686;2022-08-19T01:00:27;5.82;;;4.80;;
48534;SDS011;34323;52.022;5.686;2022-08-19T01:02:54;7.80;;;4.35;;
48534;SDS011;34323;52.022;5.686;2022-08-19T01:05:21;9.30;;;5.38;;
48534;SDS011;34323;52.022;5.686;2022-08-19T01:07:50;6.60;;;5.43;;
48534;SDS011;34323;52.022;5.686;2022-08-19T01:10:18;7.53;;;5.53;;
48534;SDS011;34323;52.022;5.686;2022-08-19T01:12:52;6.60;;;5.82;;
48534;SDS011;34323;52.022;5.686;2022-08-19T01:15:21;7.05;;;5.35;;
48534;SDS011;34323;52.022;5.686;2022-08-19T01:17:50;7.13;;;5.25;;
48534;SDS011;34323;52.022;5.686;2022-08-19T01:20:19;5.88;;;5.28;;
48534;SDS011;34323;52.022;5.686;2022-08-19T01:22:48;7.53;;;5.43;;
48534;SDS011;34323;52.022;5.686;2022-08-19T01:25:16;6.18;;;4.90;;
48534;SDS011;34323;52.022;5.686;2022-08-19T01:27:45;9.73;;;4.93;;
48534;SDS011;34323;52.022;5.686;2022-08-19T01:30:14;9.32;;;4.80;;
48534;SDS011;34323;52.022;5.686;2022-08-19T01:32:42;4.97;;;4.55;;
48534;SDS011;34323;52.022;5.686;2022-08-19T01:35:09;7.05;;;5.07;;
48534;SDS011;34323;52.022;5.686;2022-08-19T01:37:43;7.07;;;5.80;;
48534;SDS011;34323;52.022;5.686;2022-08-19T01:40:17;8.30;;;5.47;;
48534;SDS011;34323;52.022;5.686;2022-08-19T01:42:45;7.88;;;5.75;;
48534;SDS011;34323;52.022;5.686;2022-08-19T01:45:12;8.63;;;5.43;;
48534;SDS011;34323;52.022;5.686;2022-08-19T01:47:38;8.52;;;5.70;;
48534;SDS011;34323;52.022;5.686;2022-08-19T01:50:05;7.57;;;5.55;;
48534;SDS011;34323;52.022;5.686;2022-08-19T01:52:32;6.82;;;5.70;;
48534;SDS011;34323;52.022;5.686;2022-08-19T01:55:00;6.72;;;5.60;;
48534;SDS011;34323;52.022;5.686;2022-08-19T01:57:26;6.75;;;5.82;;
48534;SDS011;34323;52.022;5.686;2022-08-19T01:59:52;6.32;;;5.45;;
48534;SDS011;34323;52.022;5.686;2022-08-19T02:02:17;6.05;;;5.45;;
48534;SDS011;34323;52.022;5.686;2022-08-19T02:04:43;6.57;;;5.45;;
48534;SDS011;34323;52.022;5.686;2022-08-19T02:07:10;6.70;;;5.65;;
48534;SDS011;34323;52.022;5.686;2022-08-19T02:09:36;7.70;;;6.28;;
48534;SDS011;34323;52.022;5.686;2022-08-19T02:12:01;8.18;;;6.18;;
48534;SDS011;34323;52.022;5.686;2022-08-19T02:14:28;7.85;;;5.82;;
48534;SDS011;34323;52.022;5.686;2022-08-19T02:16:53;7.10;;;6.40;;
48534;SDS011;34323;52.022;5.686;2022-08-19T02:19:19;8.65;;;6.20;;
48534;SDS011;34323;52.022;5.686;2022-08-19T02:21:44;8.00;;;6.22;;
48534;SDS011;34323;52.022;5.686;2022-08-19T02:24:10;6.72;;;6.03;;
48534;SDS011;34323;52.022;5.686;2022-08-19T02:26:37;7.43;;;6.13;;
48534;SDS011;34323;52.022;5.686;2022-08-19T02:29:03;7.15;;;6.30;;
48534;SDS011;34323;52.022;5.686;2022-08-19T02:31:28;6.80;;;6.20;;
48534;SDS011;34323;52.022;5.686;2022-08-19T02:33:54;10.02;;;6.22;;
48534;SDS011;34323;52.022;5.686;2022-08-19T02:36:21;7.38;;;6.57;;
48534;SDS011;34323;52.022;5.686;2022-08-19T02:38:48;7.25;;;6.55;;
48534;SDS011;34323;52.022;5.686;2022-08-19T02:41:16;9.43;;;7.03;;
48534;SDS011;34323;52.022;5.686;2022-08-19T02:43:44;10.07;;;6.57;;
48534;SDS011;34323;52.022;5.686;2022-08-19T02:46:11;7.72;;;6.75;;
48534;SDS011;34323;52.022;5.686;2022-08-19T02:48:38;10.05;;;8.15;;
48534;SDS011;34323;52.022;5.686;2022-08-19T02:51:03;10.55;;;7.65;;
48534;SDS011;34323;52.022;5.686;2022-08-19T02:53:30;10.18;;;7.50;;
48534;SDS011;34323;52.022;5.686;2022-08-19T02:55:55;11.65;;;7.80;;
48534;SDS011;34323;52.022;5.686;2022-08-19T02:58:22;8.73;;;7.75;;
48534;SDS011;34323;52.022;5.686;2022-08-19T03:00:49;9.82;;;7.05;;
48534;SDS011;34323;52.022;5.686;2022-08-19T03:03:17;8.30;;;7.43;;
48534;SDS011;34323;52.022;5.686;2022-08-19T03:05:44;11.00;;;8.52;;
48534;SDS011;34323;52.022;5.686;2022-08-19T03:08:11;10.02;;;8.60;;
48534;SDS011;34323;52.022;5.686;2022-08-19T03:10:44;12.95;;;7.30;;
48534;SDS011;34323;52.022;5.686;2022-08-19T03:13:12;9.27;;;7.75;;
48534;SDS011;34323;52.022;5.686;2022-08-19T03:15:41;10.35;;;8.23;;
48534;SDS011;34323;52.022;5.686;2022-08-19T03:18:08;11.32;;;8.38;;
48534;SDS011;34323;52.022;5.686;2022-08-19T03:20:34;10.20;;;9.07;;
48534;SDS011;34323;52.022;5.686;2022-08-19T03:23:15;10.77;;;9.68;;
48534;SDS011;34323;52.022;5.686;2022-08-19T03:25:42;11.48;;;9.63;;
48534;SDS011;34323;52.022;5.686;2022-08-19T03:28:10;10.75;;;9.50;;
48534;SDS011;34323;52.022;5.686;2022-08-19T03:30:38;10.77;;;9.25;;
48534;SDS011;34323;52.022;5.686;2022-08-19T03:33:06;11.45;;;8.75;;
48534;SDS011;34323;52.022;5.686;2022-08-19T03:35:32;9.75;;;8.77;;
48534;SDS011;34323;52.022;5.686;2022-08-19T03:37:58;11.15;;;9.70;;
48534;SDS011;34323;52.022;5.686;2022-08-19T03:40:24;12.63;;;9.48;;
48534;SDS011;34323;52.022;5.686;2022-08-19T03:42:50;13.88;;;9.23;;
48534;SDS011;34323;52.022;5.686;2022-08-19T03:45:16;11.60;;;9.65;;
48534;SDS011;34323;52.022;5.686;2022-08-19T03:47:42;10.90;;;9.80;;
48534;SDS011;34323;52.022;5.686;2022-08-19T03:50:07;10.65;;;9.65;;
48534;SDS011;34323;52.022;5.686;2022-08-19T03:52:34;13.82;;;9.48;;
48534;SDS011;34323;52.022;5.686;2022-08-19T03:55:01;12.77;;;8.77;;
48534;SDS011;34323;52.022;5.686;2022-08-19T03:57:27;10.02;;;8.05;;
48534;SDS011;34323;52.022;5.686;2022-08-19T03:59:52;14.85;;;9.60;;
48534;SDS011;34323;52.022;5.686;2022-08-19T04:02:18;9.07;;;7.88;;
48534;SDS011;34323;52.022;5.686;2022-08-19T04:04:43;9.77;;;8.77;;
48534;SDS011;34323;52.022;5.686;2022-08-19T04:07:10;12.20;;;9.27;;
48534;SDS011;34323;52.022;5.686;2022-08-19T04:09:40;11.88;;;8.85;;
48534;SDS011;34323;52.022;5.686;2022-08-19T04:12:06;9.85;;;8.85;;
48534;SDS011;34323;52.022;5.686;2022-08-19T04:14:32;12.85;;;8.32;;
48534;SDS011;34323;52.022;5.686;2022-08-19T04:16:59;11.85;;;9.73;;
48534;SDS011;34323;52.022;5.686;2022-08-19T04:19:26;12.40;;;9.45;;
48534;SDS011;34323;52.022;5.686;2022-08-19T04:21:54;13.90;;;10.07;;
48534;SDS011;34323;52.022;5.686;2022-08-19T04:24:20;10.05;;;9.05;;
48534;SDS011;34323;52.022;5.686;2022-08-19T04:26:47;9.80;;;8.77;;
48534;SDS011;34323;52.022;5.686;2022-08-19T04:29:16;10.80;;;9.07;;
48534;SDS011;34323;52.022;5.686;2022-08-19T04:31:44;11.02;;;9.77;;
48534;SDS011;34323;52.022;5.686;2022-08-19T04:34:11;10.82;;;9.73;;
48534;SDS011;34323;52.022;5.686;2022-08-19T04:36:38;10.52;;;9.30;;
48534;SDS011;34323;52.022;5.686;2022-08-19T04:39:07;11.18;;;9.60;;
48534;SDS011;34323;52.022;5.686;2022-08-19T04:41:35;10.75;;;9.55;;
48534;SDS011;34323;52.022;5.686;2022-08-19T04:44:20;10.68;;;9.23;;
48534;SDS011;34323;52.022;5.686;2022-08-19T04:46:46;12.13;;;9.98;;
48534;SDS011;34323;52.022;5.686;2022-08-19T04:49:14;10.02;;;8.93;;
48534;SDS011;34323;52.022;5.686;2022-08-19T04:51:42;10.68;;;9.48;;
48534;SDS011;34323;52.022;5.686;2022-08-19T04:54:09;13.88;;;8.25;;
48534;SDS011;34323;52.022;5.686;2022-08-19T04:56:35;10.25;;;9.25;;
48534;SDS011;34323;52.022;5.686;2022-08-19T04:59:02;12.02;;;9.23;;
48534;SDS011;34323;52.022;5.686;2022-08-19T05:01:29;10.23;;;8.35;;
48534;SDS011;34323;52.022;5.686;2022-08-19T05:04:01;11.07;;;9.18;;
48534;SDS011;34323;52.022;5.686;2022-08-19T05:06:29;9.93;;;8.30;;
48534;SDS011;34323;52.022;5.686;2022-08-19T05:08:59;9.18;;;8.18;;
48534;SDS011;34323;52.022;5.686;2022-08-19T05:11:26;9.35;;;8.52;;
48534;SDS011;34323;52.022;5.686;2022-08-19T05:13:56;10.40;;;9.40;;
48534;SDS011;34323;52.022;5.686;2022-08-19T05:16:23;10.75;;;9.63;;
48534;SDS011;34323;52.022;5.686;2022-08-19T05:18:50;10.45;;;9.45;;
48534;SDS011;34323;52.022;5.686;2022-08-19T05:21:35;10.75;;;9.50;;
48534;SDS011;34323;52.022;5.686;2022-08-19T05:24:20;11.23;;;9.27;;
48534;SDS011;34323;52.022;5.686;2022-08-19T05:26:48;10.63;;;9.25;;
48534;SDS011;34323;52.022;5.686;2022-08-19T05:29:18;12.15;;;9.20;;
48534;SDS011;34323;52.022;5.686;2022-08-19T05:31:45;12.40;;;8.85;;
48534;SDS011;34323;52.022;5.686;2022-08-19T05:34:14;9.77;;;8.77;;
48534;SDS011;34323;52.022;5.686;2022-08-19T05:36:41;10.35;;;9.25;;
48534;SDS011;34323;52.022;5.686;2022-08-19T05:39:09;11.52;;;8.90;;
48534;SDS011;34323;52.022;5.686;2022-08-19T05:41:40;12.65;;;9.57;;
48534;SDS011;34323;52.022;5.686;2022-08-19T05:44:07;10.50;;;9.40;;
48534;SDS011;34323;52.022;5.686;2022-08-19T05:46:34;10.70;;;9.35;;
48534;SDS011;34323;52.022;5.686;2022-08-19T05:49:05;9.98;;;8.98;;
48534;SDS011;34323;52.022;5.686;2022-08-19T05:51:32;11.60;;;10.40;;
48534;SDS011;34323;52.022;5.686;2022-08-19T05:53:59;11.45;;;10.02;;
48534;SDS011;34323;52.022;5.686;2022-08-19T05:56:29;12.02;;;10.15;;
48534;SDS011;34323;52.022;5.686;2022-08-19T05:58:55;10.13;;;9.00;;
48534;SDS011;34323;52.022;5.686;2022-08-19T06:01:23;11.25;;;9.63;;
48534;SDS011;34323;52.022;5.686;2022-08-19T06:03:50;10.75;;;9.57;;
48534;SDS011;34323;52.022;5.686;2022-08-19T06:06:16;12.00;;;10.80;;
48534;SDS011;34323;52.022;5.686;2022-08-19T06:08:42;12.23;;;10.90;;
48534;SDS011;34323;52.022;5.686;2022-08-19T06:11:20;20.83;;;15.40;;
48534;SDS011;34323;52.022;5.686;2022-08-19T06:13:57;19.55;;;16.98;;
48534;SDS011;34323;52.022;5.686;2022-08-19T06:16:25;20.23;;;17.63;;
48534;SDS011;34323;52.022;5.686;2022-08-19T06:18:52;21.17;;;18.05;;
48534;SDS011;34323;52.022;5.686;2022-08-19T06:21:19;24.80;;;20.25;;
48534;SDS011;34323;52.022;5.686;2022-08-19T06:23:47;29.00;;;22.40;;
48534;SDS011;34323;52.022;5.686;2022-08-19T06:26:13;25.30;;;21.02;;
48534;SDS011;34323;52.022;5.686;2022-08-19T06:28:40;31.92;;;23.25;;
48534;SDS011;34323;52.022;5.686;2022-08-19T06:31:11;33.15;;;23.40;;
48534;SDS011;34323;52.022;5.686;2022-08-19T06:33:41;39.30;;;27.58;;
48534;SDS011;34323;52.022;5.686;2022-08-19T06:36:07;55.72;;;34.35;;
48534;SDS011;34323;52.022;5.686;2022-08-19T06:41:06;54.40;;;35.55;;
48534;SDS011;34323;52.022;5.686;2022-08-19T06:43:31;58.70;;;36.00;;
48534;SDS011;34323;52.022;5.686;2022-08-19T06:45:57;78.43;;;43.70;;
48534;SDS011;34323;52.022;5.686;2022-08-19T06:48:24;75.13;;;42.67;;
48534;SDS011;34323;52.022;5.686;2022-08-19T06:50:49;77.55;;;44.63;;
48534;SDS011;34323;52.022;5.686;2022-08-19T06:53:16;79.22;;;46.45;;
48534;SDS011;34323;52.022;5.686;2022-08-19T06:55:44;95.43;;;50.97;;
48534;SDS011;34323;52.022;5.686;2022-08-19T06:58:10;103.57;;;54.63;;
48534;SDS011;34323;52.022;5.686;2022-08-19T07:00:35;128.82;;;58.92;;
48534;SDS011;34323;52.022;5.686;2022-08-19T07:03:01;113.28;;;55.05;;
48534;SDS011;34323;52.022;5.686;2022-08-19T07:05:27;112.85;;;54.45;;
48534;SDS011;34323;52.022;5.686;2022-08-19T07:07:53;108.70;;;53.40;;
48534;SDS011;34323;52.022;5.686;2022-08-19T07:10:18;104.97;;;54.25;;
48534;SDS011;34323;52.022;5.686;2022-08-19T07:12:44;90.75;;;50.03;;
48534;SDS011;34323;52.022;5.686;2022-08-19T07:15:10;103.10;;;52.85;;
48534;SDS011;34323;52.022;5.686;2022-08-19T07:17:37;107.25;;;55.20;;
48534;SDS011;34323;52.022;5.686;2022-08-19T07:20:04;99.18;;;51.63;;
48534;SDS011;34323;52.022;5.686;2022-08-19T07:22:32;113.80;;;54.70;;
48534;SDS011;34323;52.022;5.686;2022-08-19T07:24:59;101.57;;;52.05;;
48534;SDS011;34323;52.022;5.686;2022-08-19T07:27:25;118.97;;;60.08;;
48534;SDS011;34323;52.022;5.686;2022-08-19T07:29:51;118.93;;;60.75;;
48534;SDS011;34323;52.022;5.686;2022-08-19T07:32:19;128.45;;;60.85;;
48534;SDS011;34323;52.022;5.686;2022-08-19T07:34:45;121.57;;;63.83;;
48534;SDS011;34323;52.022;5.686;2022-08-19T07:37:10;122.70;;;61.80;;
48534;SDS011;34323;52.022;5.686;2022-08-19T07:39:36;131.32;;;65.05;;
48534;SDS011;34323;52.022;5.686;2022-08-19T07:42:04;133.25;;;68.30;;
48534;SDS011;34323;52.022;5.686;2022-08-19T07:44:32;129.52;;;65.82;;
48534;SDS011;34323;52.022;5.686;2022-08-19T07:46:59;137.35;;;66.05;;
48534;SDS011;34323;52.022;5.686;2022-08-19T07:49:26;120.90;;;63.38;;
48534;SDS011;34323;52.022;5.686;2022-08-19T07:51:53;113.97;;;61.63;;
48534;SDS011;34323;52.022;5.686;2022-08-19T07:54:25;106.15;;;58.17;;
48534;SDS011;34323;52.022;5.686;2022-08-19T07:56:52;107.07;;;61.70;;
48534;SDS011;34323;52.022;5.686;2022-08-19T07:59:18;103.00;;;59.53;;
48534;SDS011;34323;52.022;5.686;2022-08-19T08:01:45;90.40;;;55.05;;
48534;SDS011;34323;52.022;5.686;2022-08-19T08:04:11;85.20;;;52.67;;
48534;SDS011;34323;52.022;5.686;2022-08-19T08:07:09;87.40;;;53.53;;
48534;SDS011;34323;52.022;5.686;2022-08-19T08:09:53;95.22;;;55.78;;
48534;SDS011;34323;52.022;5.686;2022-08-19T08:12:21;96.90;;;55.20;;
48534;SDS011;34323;52.022;5.686;2022-08-19T08:14:51;90.80;;;52.50;;
48534;SDS011;34323;52.022;5.686;2022-08-19T08:17:19;85.75;;;49.33;;
48534;SDS011;34323;52.022;5.686;2022-08-19T08:19:46;78.90;;;47.45;;
48534;SDS011;34323;52.022;5.686;2022-08-19T08:22:14;77.85;;;46.53;;
48534;SDS011;34323;52.022;5.686;2022-08-19T08:25:01;81.93;;;49.03;;
48534;SDS011;34323;52.022;5.686;2022-08-19T08:27:30;79.60;;;48.70;;
48534;SDS011;34323;52.022;5.686;2022-08-19T08:29:59;75.47;;;48.38;;
48534;SDS011;34323;52.022;5.686;2022-08-19T08:32:25;73.85;;;47.67;;
48534;SDS011;34323;52.022;5.686;2022-08-19T08:34:51;71.90;;;47.25;;
48534;SDS011;34323;52.022;5.686;2022-08-19T08:37:17;72.90;;;47.75;;
48534;SDS011;34323;52.022;5.686;2022-08-19T08:39:43;77.05;;;48.58;;
48534;SDS011;34323;52.022;5.686;2022-08-19T08:42:12;73.20;;;47.80;;
48534;SDS011;34323;52.022;5.686;2022-08-19T08:44:57;69.68;;;44.30;;
48534;SDS011;34323;52.022;5.686;2022-08-19T08:47:26;64.88;;;43.72;;
48534;SDS011;34323;52.022;5.686;2022-08-19T08:50:20;61.63;;;40.25;;
48534;SDS011;34323;52.022;5.686;2022-08-19T08:52:48;60.08;;;39.35;;
48534;SDS011;34323;52.022;5.686;2022-08-19T08:55:19;64.30;;;42.63;;
48534;SDS011;34323;52.022;5.686;2022-08-19T09:00:15;60.35;;;38.20;;
48534;SDS011;34323;52.022;5.686;2022-08-19T09:02:44;55.50;;;37.60;;
48534;SDS011;34323;52.022;5.686;2022-08-19T09:05:10;53.33;;;35.72;;
48534;SDS011;34323;52.022;5.686;2022-08-19T09:07:41;48.35;;;32.55;;
48534;SDS011;34323;52.022;5.686;2022-08-19T09:10:17;49.20;;;33.67;;
48534;SDS011;34323;52.022;5.686;2022-08-19T09:15:57;43.50;;;29.40;;
48534;SDS011;34323;52.022;5.686;2022-08-19T09:18:47;43.83;;;28.25;;
48534;SDS011;34323;52.022;5.686;2022-08-19T09:21:17;44.05;;;30.02;;
48534;SDS011;34323;52.022;5.686;2022-08-19T09:23:43;38.45;;;28.42;;
48534;SDS011;34323;52.022;5.686;2022-08-19T09:26:11;42.92;;;27.55;;
48534;SDS011;34323;52.022;5.686;2022-08-19T09:28:39;37.15;;;27.67;;
48534;SDS011;34323;52.022;5.686;2022-08-19T09:31:09;40.08;;;27.75;;
48534;SDS011;34323;52.022;5.686;2022-08-19T09:33:35;37.28;;;26.58;;
48534;SDS011;34323;52.022;5.686;2022-08-19T09:36:05;40.72;;;26.50;;
48534;SDS011;34323;52.022;5.686;2022-08-19T09:38:33;42.30;;;27.50;;
48534;SDS011;34323;52.022;5.686;2022-08-19T09:41:03;44.03;;;27.75;;
48534;SDS011;34323;52.022;5.686;2022-08-19T09:43:29;37.30;;;25.83;;
48534;SDS011;34323;52.022;5.686;2022-08-19T09:45:56;34.38;;;26.65;;
48534;SDS011;34323;52.022;5.686;2022-08-19T09:48:21;38.13;;;24.80;;
48534;SDS011;34323;52.022;5.686;2022-08-19T09:50:47;36.05;;;25.60;;
48534;SDS011;34323;52.022;5.686;2022-08-19T09:53:13;32.78;;;24.70;;
48534;SDS011;34323;52.022;5.686;2022-08-19T09:55:42;33.95;;;23.67;;
48534;SDS011;34323;52.022;5.686;2022-08-19T09:58:08;30.80;;;24.27;;
48534;SDS011;34323;52.022;5.686;2022-08-19T10:00:33;31.55;;;23.08;;
48534;SDS011;34323;52.022;5.686;2022-08-19T10:03:01;34.95;;;24.35;;
48534;SDS011;34323;52.022;5.686;2022-08-19T10:05:27;34.05;;;23.58;;
48534;SDS011;34323;52.022;5.686;2022-08-19T10:08:11;32.95;;;23.70;;
48534;SDS011;34323;52.022;5.686;2022-08-19T10:10:36;30.45;;;21.73;;
48534;SDS011;34323;52.022;5.686;2022-08-19T10:13:02;32.20;;;22.23;;
48534;SDS011;34323;52.022;5.686;2022-08-19T10:15:28;36.40;;;23.38;;
48534;SDS011;34323;52.022;5.686;2022-08-19T10:17:54;28.02;;;20.73;;
48534;SDS011;34323;52.022;5.686;2022-08-19T10:20:20;26.33;;;20.83;;
48534;SDS011;34323;52.022;5.686;2022-08-19T10:22:47;33.50;;;22.75;;
48534;SDS011;34323;52.022;5.686;2022-08-19T10:25:13;34.17;;;22.52;;
48534;SDS011;34323;52.022;5.686;2022-08-19T10:27:39;32.45;;;21.33;;
48534;SDS011;34323;52.022;5.686;2022-08-19T10:30:05;25.27;;;19.70;;
48534;SDS011;34323;52.022;5.686;2022-08-19T10:32:31;31.15;;;20.73;;
48534;SDS011;34323;52.022;5.686;2022-08-19T10:34:57;31.00;;;21.38;;
48534;SDS011;34323;52.022;5.686;2022-08-19T10:37:22;28.95;;;20.92;;
48534;SDS011;34323;52.022;5.686;2022-08-19T10:39:48;28.25;;;22.10;;
48534;SDS011;34323;52.022;5.686;2022-08-19T10:42:13;33.72;;;23.08;;
48534;SDS011;34323;52.022;5.686;2022-08-19T10:44:41;32.35;;;22.45;;
48534;SDS011;34323;52.022;5.686;2022-08-19T10:47:06;32.80;;;22.98;;
48534;SDS011;34323;52.022;5.686;2022-08-19T10:49:32;28.35;;;20.60;;
48534;SDS011;34323;52.022;5.686;2022-08-19T10:52:18;30.40;;;20.20;;
48534;SDS011;34323;52.022;5.686;2022-08-19T10:54:58;28.58;;;20.33;;
48534;SDS011;34323;52.022;5.686;2022-08-19T10:57:48;25.33;;;16.73;;
48534;SDS011;34323;52.022;5.686;2022-08-19T11:00:14;27.92;;;20.45;;
48534;SDS011;34323;52.022;5.686;2022-08-19T11:02:40;25.35;;;18.88;;
48534;SDS011;34323;52.022;5.686;2022-08-19T11:05:06;26.98;;;19.30;;
48534;SDS011;34323;52.022;5.686;2022-08-19T11:07:35;26.95;;;18.50;;
48534;SDS011;34323;52.022;5.686;2022-08-19T11:10:03;25.42;;;17.27;;
48534;SDS011;34323;52.022;5.686;2022-08-19T11:12:29;26.27;;;19.60;;
48534;SDS011;34323;52.022;5.686;2022-08-19T11:14:55;25.17;;;17.60;;
48534;SDS011;34323;52.022;5.686;2022-08-19T11:17:20;26.65;;;19.55;;
48534;SDS011;34323;52.022;5.686;2022-08-19T11:19:48;29.67;;;19.10;;
48534;SDS011;34323;52.022;5.686;2022-08-19T11:22:14;29.48;;;18.67;;
48534;SDS011;34323;52.022;5.686;2022-08-19T11:24:43;33.45;;;18.27;;
48534;SDS011;34323;52.022;5.686;2022-08-19T11:27:09;28.13;;;17.33;;
48534;SDS011;34323;52.022;5.686;2022-08-19T11:29:39;30.27;;;20.83;;
48534;SDS011;34323;52.022;5.686;2022-08-19T11:32:07;24.67;;;18.60;;
48534;SDS011;34323;52.022;5.686;2022-08-19T11:34:39;24.85;;;18.50;;
48534;SDS011;34323;52.022;5.686;2022-08-19T11:37:06;23.50;;;16.75;;
48534;SDS011;34323;52.022;5.686;2022-08-19T11:39:34;24.75;;;18.40;;
48534;SDS011;34323;52.022;5.686;2022-08-19T11:42:01;26.60;;;18.95;;
48534;SDS011;34323;52.022;5.686;2022-08-19T11:44:47;30.80;;;20.42;;
48534;SDS011;34323;52.022;5.686;2022-08-19T11:47:14;26.92;;;21.25;;
48534;SDS011;34323;52.022;5.686;2022-08-19T11:49:58;25.38;;;20.17;;
48534;SDS011;34323;52.022;5.686;2022-08-19T11:52:24;28.60;;;21.05;;
48534;SDS011;34323;52.022;5.686;2022-08-19T11:54:50;32.30;;;23.63;;
48534;SDS011;34323;52.022;5.686;2022-08-19T11:57:16;31.85;;;21.92;;
48534;SDS011;34323;52.022;5.686;2022-08-19T11:59:42;30.40;;;24.17;;
48534;SDS011;34323;52.022;5.686;2022-08-19T12:02:12;26.20;;;20.80;;
48534;SDS011;34323;52.022;5.686;2022-08-19T12:04:40;34.67;;;23.98;;
48534;SDS011;34323;52.022;5.686;2022-08-19T12:07:05;29.70;;;22.70;;
48534;SDS011;34323;52.022;5.686;2022-08-19T12:09:31;30.40;;;23.30;;
48534;SDS011;34323;52.022;5.686;2022-08-19T12:11:59;29.27;;;22.70;;
48534;SDS011;34323;52.022;5.686;2022-08-19T12:14:26;32.17;;;22.85;;
48534;SDS011;34323;52.022;5.686;2022-08-19T12:16:52;27.95;;;21.45;;
48534;SDS011;34323;52.022;5.686;2022-08-19T12:19:18;25.73;;;19.80;;
48534;SDS011;34323;52.022;5.686;2022-08-19T12:21:44;38.70;;;25.30;;
48534;SDS011;34323;52.022;5.686;2022-08-19T12:24:10;34.65;;;24.70;;
48534;SDS011;34323;52.022;5.686;2022-08-19T12:26:36;26.58;;;20.15;;
48534;SDS011;34323;52.022;5.686;2022-08-19T12:29:02;30.48;;;23.05;;
48534;SDS011;34323;52.022;5.686;2022-08-19T12:31:29;26.75;;;23.55;;
48534;SDS011;34323;52.022;5.686;2022-08-19T12:33:55;28.65;;;23.05;;
48534;SDS011;34323;52.022;5.686;2022-08-19T12:36:21;32.60;;;22.27;;
48534;SDS011;34323;52.022;5.686;2022-08-19T12:38:50;30.30;;;21.83;;
48534;SDS011;34323;52.022;5.686;2022-08-19T12:41:18;32.25;;;24.63;;
48534;SDS011;34323;52.022;5.686;2022-08-19T12:43:46;30.73;;;23.73;;
48534;SDS011;34323;52.022;5.686;2022-08-19T12:46:13;31.95;;;23.02;;
48534;SDS011;34323;52.022;5.686;2022-08-19T12:48:39;27.70;;;20.13;;
48534;SDS011;34323;52.022;5.686;2022-08-19T12:51:08;24.10;;;20.70;;
48534;SDS011;34323;52.022;5.686;2022-08-19T12:53:35;31.77;;;21.83;;
48534;SDS011;34323;52.022;5.686;2022-08-19T12:56:02;23.40;;;19.40;;
48534;SDS011;34323;52.022;5.686;2022-08-19T12:58:28;25.95;;;20.48;;
48534;SDS011;34323;52.022;5.686;2022-08-19T13:00:54;28.25;;;21.38;;
48534;SDS011;34323;52.022;5.686;2022-08-19T13:03:20;24.75;;;19.17;;
48534;SDS011;34323;52.022;5.686;2022-08-19T13:05:50;28.67;;;22.95;;
48534;SDS011;34323;52.022;5.686;2022-08-19T13:08:15;23.42;;;19.80;;
48534;SDS011;34323;52.022;5.686;2022-08-19T13:10:42;31.25;;;22.10;;
48534;SDS011;34323;52.022;5.686;2022-08-19T13:13:08;24.77;;;20.77;;
48534;SDS011;34323;52.022;5.686;2022-08-19T13:15:38;32.70;;;21.08;;
48534;SDS011;34323;52.022;5.686;2022-08-19T13:18:06;28.33;;;20.55;;
48534;SDS011;34323;52.022;5.686;2022-08-19T13:20:34;30.20;;;21.27;;
48534;SDS011;34323;52.022;5.686;2022-08-19T13:23:01;27.98;;;22.23;;
48534;SDS011;34323;52.022;5.686;2022-08-19T13:25:26;26.08;;;21.98;;
48534;SDS011;34323;52.022;5.686;2022-08-19T13:27:52;25.05;;;20.00;;
48534;SDS011;34323;52.022;5.686;2022-08-19T13:30:18;23.38;;;19.85;;
48534;SDS011;34323;52.022;5.686;2022-08-19T13:33:03;24.15;;;21.17;;
48534;SDS011;34323;52.022;5.686;2022-08-19T13:35:40;30.00;;;19.75;;
48534;SDS011;34323;52.022;5.686;2022-08-19T13:38:09;26.95;;;21.02;;
48534;SDS011;34323;52.022;5.686;2022-08-19T13:40:35;24.70;;;21.35;;
48534;SDS011;34323;52.022;5.686;2022-08-19T13:43:02;29.63;;;22.05;;
48534;SDS011;34323;52.022;5.686;2022-08-19T13:45:29;29.75;;;22.40;;
48534;SDS011;34323;52.022;5.686;2022-08-19T13:48:00;56.13;;;28.63;;
48534;SDS011;34323;52.022;5.686;2022-08-19T13:50:32;33.97;;;24.85;;
48534;SDS011;34323;52.022;5.686;2022-08-19T13:52:58;35.05;;;26.17;;
48534;SDS011;34323;52.022;5.686;2022-08-19T13:55:24;36.70;;;27.83;;
48534;SDS011;34323;52.022;5.686;2022-08-19T13:57:52;37.30;;;27.92;;
48534;SDS011;34323;52.022;5.686;2022-08-19T14:00:19;32.85;;;27.52;;
48534;SDS011;34323;52.022;5.686;2022-08-19T14:02:46;40.65;;;27.40;;
48534;SDS011;34323;52.022;5.686;2022-08-19T14:05:13;36.70;;;28.80;;
48534;SDS011;34323;52.022;5.686;2022-08-19T14:07:40;35.83;;;27.50;;
48534;SDS011;34323;52.022;5.686;2022-08-19T14:10:07;42.03;;;29.38;;
48534;SDS011;34323;52.022;5.686;2022-08-19T14:12:34;38.72;;;28.90;;
48534;SDS011;34323;52.022;5.686;2022-08-19T14:15:01;42.08;;;26.30;;
48534;SDS011;34323;52.022;5.686;2022-08-19T14:17:28;32.38;;;26.08;;
48534;SDS011;34323;52.022;5.686;2022-08-19T14:20:01;34.53;;;26.65;;
48534;SDS011;34323;52.022;5.686;2022-08-19T14:22:32;35.40;;;27.08;;
48534;SDS011;34323;52.022;5.686;2022-08-19T14:24:58;38.90;;;28.00;;
48534;SDS011;34323;52.022;5.686;2022-08-19T14:27:24;34.13;;;26.65;;
48534;SDS011;34323;52.022;5.686;2022-08-19T14:29:50;28.33;;;23.30;;
48534;SDS011;34323;52.022;5.686;2022-08-19T14:32:16;25.75;;;20.10;;
48534;SDS011;34323;52.022;5.686;2022-08-19T14:34:42;23.88;;;18.38;;
48534;SDS011;34323;52.022;5.686;2022-08-19T14:37:10;18.90;;;16.27;;
48534;SDS011;34323;52.022;5.686;2022-08-19T14:39:39;13.85;;;11.65;;
48534;SDS011;34323;52.022;5.686;2022-08-19T14:42:09;11.32;;;8.90;;